sensor_id;sensor_type;location;lat;lon;timestamp;P1;durP1;ratioP1;P2;durP2;ratioP2
64351;SDS011;50680;52.626;-8.668;2022-11-15T00:00:56;19.02;;;1.38;;
64351;SDS011;50680;52.626;-8.668;2022-11-15T00:03:24;16.67;;;1.35;;
64351;SDS011;50680;52.626;-8.668;2022-11-15T00:05:52;20.67;;;2.00;;
64351;SDS011;50680;52.626;-8.668;2022-11-15T00:08:19;19.45;;;1.40;;
64351;SDS011;50680;52.626;-8.668;2022-11-15T00:10:56;32.88;;;2.05;;
64351;SDS011;50680;52.626;-8.668;2022-11-15T00:13:24;17.63;;;1.55;;
64351;SDS011;50680;52.626;-8.668;2022-11-15T00:15:52;22.50;;;1.70;;
64351;SDS011;50680;52.626;-8.668;2022-11-15T00:18:19;15.15;;;2.10;;
64351;SDS011;50680;52.626;-8.668;2022-11-15T00:20:45;11.88;;;1.30;;
64351;SDS011;50680;52.626;-8.668;2022-11-15T00:23:12;16.48;;;1.38;;
64351;SDS011;50680;52.626;-8.668;2022-11-15T00:25:39;24.70;;;1.60;;
64351;SDS011;50680;52.626;-8.668;2022-11-15T00:28:06;11.18;;;1.20;;
64351;SDS011;50680;52.626;-8.668;2022-11-15T00:30:33;14.30;;;1.48;;
64351;SDS011;50680;52.626;-8.668;2022-11-15T00:33:01;19.63;;;1.58;;
64351;SDS011;50680;52.626;-8.668;2022-11-15T00:35:33;12.10;;;1.20;;
64351;SDS011;50680;52.626;-8.668;2022-11-15T00:38:01;19.67;;;1.27;;
64351;SDS011;50680;52.626;-8.668;2022-11-15T00:40:28;22.42;;;2.00;;
64351;SDS011;50680;52.626;-8.668;2022-11-15T00:42:56;18.48;;;1.55;;
64351;SDS011;50680;52.626;-8.668;2022-11-15T00:45:23;16.88;;;1.77;;
64351;SDS011;50680;52.626;-8.668;2022-11-15T00:47:51;21.33;;;1.70;;
64351;SDS011;50680;52.626;-8.668;2022-11-15T00:50:18;17.83;;;1.75;;
64351;SDS011;50680;52.626;-8.668;2022-11-15T00:52:45;14.10;;;1.48;;
64351;SDS011;50680;52.626;-8.668;2022-11-15T00:55:15;19.15;;;2.10;;
64351;SDS011;50680;52.626;-8.668;2022-11-15T00:57:43;17.08;;;2.20;;
64351;SDS011;50680;52.626;-8.668;2022-11-15T01:00:10;21.27;;;1.63;;
64351;SDS011;50680;52.626;-8.668;2022-11-15T01:02:38;15.25;;;1.83;;
64351;SDS011;50680;52.626;-8.668;2022-11-15T01:05:05;22.90;;;1.67;;
64351;SDS011;50680;52.626;-8.668;2022-11-15T01:07:32;20.00;;;2.20;;
64351;SDS011;50680;52.626;-8.668;2022-11-15T01:09:59;18.75;;;1.88;;
64351;SDS011;50680;52.626;-8.668;2022-11-15T01:12:26;11.30;;;1.63;;
64351;SDS011;50680;52.626;-8.668;2022-11-15T01:14:53;14.55;;;1.65;;
64351;SDS011;50680;52.626;-8.668;2022-11-15T01:17:20;16.13;;;1.70;;
64351;SDS011;50680;52.626;-8.668;2022-11-15T01:19:47;17.77;;;1.60;;
64351;SDS011;50680;52.626;-8.668;2022-11-15T01:22:14;14.45;;;1.50;;
64351;SDS011;50680;52.626;-8.668;2022-11-15T01:24:41;20.00;;;2.47;;
64351;SDS011;50680;52.626;-8.668;2022-11-15T01:27:08;16.45;;;2.38;;
64351;SDS011;50680;52.626;-8.668;2022-11-15T01:29:35;28.92;;;2.60;;
64351;SDS011;50680;52.626;-8.668;2022-11-15T01:32:02;19.65;;;1.50;;
64351;SDS011;50680;52.626;-8.668;2022-11-15T01:34:29;23.33;;;2.58;;
64351;SDS011;50680;52.626;-8.668;2022-11-15T01:36:55;17.33;;;1.60;;
64351;SDS011;50680;52.626;-8.668;2022-11-15T01:39:22;17.00;;;1.60;;
64351;SDS011;50680;52.626;-8.668;2022-11-15T01:41:49;9.90;;;1.75;;
64351;SDS011;50680;52.626;-8.668;2022-11-15T01:46:54;22.65;;;1.80;;
64351;SDS011;50680;52.626;-8.668;2022-11-15T01:49:22;23.27;;;1.90;;
64351;SDS011;50680;52.626;-8.668;2022-11-15T01:51:50;13.98;;;1.67;;
64351;SDS011;50680;52.626;-8.668;2022-11-15T01:54:18;15.95;;;1.60;;
64351;SDS011;50680;52.626;-8.668;2022-11-15T01:56:49;22.75;;;1.48;;
64351;SDS011;50680;52.626;-8.668;2022-11-15T01:59:19;17.35;;;1.85;;
64351;SDS011;50680;52.626;-8.668;2022-11-15T02:01:47;21.50;;;2.00;;
64351;SDS011;50680;52.626;-8.668;2022-11-15T02:04:17;12.82;;;1.20;;
64351;SDS011;50680;52.626;-8.668;2022-11-15T02:09:13;17.05;;;1.88;;
64351;SDS011;50680;52.626;-8.668;2022-11-15T02:11:40;17.33;;;1.27;;
64351;SDS011;50680;52.626;-8.668;2022-11-15T02:14:07;11.90;;;1.40;;
64351;SDS011;50680;52.626;-8.668;2022-11-15T02:19:36;18.75;;;1.85;;
64351;SDS011;50680;52.626;-8.668;2022-11-15T02:31:59;20.88;;;2.05;;
64351;SDS011;50680;52.626;-8.668;2022-11-15T02:34:34;20.60;;;1.75;;
64351;SDS011;50680;52.626;-8.668;2022-11-15T02:39:44;13.85;;;1.75;;
64351;SDS011;50680;52.626;-8.668;2022-11-15T02:42:21;17.33;;;1.50;;
64351;SDS011;50680;52.626;-8.668;2022-11-15T02:45:21;20.90;;;1.40;;
64351;SDS011;50680;52.626;-8.668;2022-11-15T02:47:54;17.25;;;1.38;;
64351;SDS011;50680;52.626;-8.668;2022-11-15T02:50:24;19.33;;;2.47;;
64351;SDS011;50680;52.626;-8.668;2022-11-15T02:52:53;17.73;;;2.07;;
64351;SDS011;50680;52.626;-8.668;2022-11-15T02:55:31;16.23;;;2.72;;
64351;SDS011;50680;52.626;-8.668;2022-11-15T03:12:01;16.83;;;1.25;;
64351;SDS011;50680;52.626;-8.668;2022-11-15T03:14:35;16.90;;;1.35;;
64351;SDS011;50680;52.626;-8.668;2022-11-15T03:17:23;15.63;;;2.15;;
64351;SDS011;50680;52.626;-8.668;2022-11-15T03:19:57;12.38;;;1.08;;
64351;SDS011;50680;52.626;-8.668;2022-11-15T03:22:27;19.17;;;1.30;;
64351;SDS011;50680;52.626;-8.668;2022-11-15T03:24:58;16.48;;;1.20;;
64351;SDS011;50680;52.626;-8.668;2022-11-15T03:27:30;19.27;;;1.30;;
64351;SDS011;50680;52.626;-8.668;2022-11-15T03:30:03;10.98;;;1.25;;
64351;SDS011;50680;52.626;-8.668;2022-11-15T03:32:36;18.40;;;1.55;;
64351;SDS011;50680;52.626;-8.668;2022-11-15T03:35:08;17.38;;;1.30;;
64351;SDS011;50680;52.626;-8.668;2022-11-15T03:40:07;10.70;;;1.70;;
64351;SDS011;50680;52.626;-8.668;2022-11-15T03:42:59;18.05;;;2.00;;
64351;SDS011;50680;52.626;-8.668;2022-11-15T03:45:41;16.42;;;1.60;;
64351;SDS011;50680;52.626;-8.668;2022-11-15T03:48:14;20.92;;;1.52;;
64351;SDS011;50680;52.626;-8.668;2022-11-15T03:50:47;16.83;;;1.25;;
64351;SDS011;50680;52.626;-8.668;2022-11-15T03:53:15;17.67;;;1.65;;
64351;SDS011;50680;52.626;-8.668;2022-11-15T03:55:42;18.48;;;1.90;;
64351;SDS011;50680;52.626;-8.668;2022-11-15T03:58:09;19.80;;;2.25;;
64351;SDS011;50680;52.626;-8.668;2022-11-15T04:00:35;16.50;;;1.48;;
64351;SDS011;50680;52.626;-8.668;2022-11-15T04:03:02;17.30;;;1.52;;
64351;SDS011;50680;52.626;-8.668;2022-11-15T04:05:29;25.17;;;2.78;;
64351;SDS011;50680;52.626;-8.668;2022-11-15T04:07:56;16.20;;;1.45;;
64351;SDS011;50680;52.626;-8.668;2022-11-15T04:10:23;24.40;;;1.60;;
64351;SDS011;50680;52.626;-8.668;2022-11-15T04:12:50;18.00;;;1.40;;
64351;SDS011;50680;52.626;-8.668;2022-11-15T04:15:17;19.13;;;1.30;;
64351;SDS011;50680;52.626;-8.668;2022-11-15T04:17:49;12.55;;;1.33;;
64351;SDS011;50680;52.626;-8.668;2022-11-15T04:23:10;13.05;;;1.50;;
64351;SDS011;50680;52.626;-8.668;2022-11-15T04:25:59;17.48;;;1.58;;
64351;SDS011;50680;52.626;-8.668;2022-11-15T04:28:28;17.92;;;1.63;;
64351;SDS011;50680;52.626;-8.668;2022-11-15T04:30:55;16.67;;;1.35;;
64351;SDS011;50680;52.626;-8.668;2022-11-15T04:33:22;24.58;;;1.48;;
64351;SDS011;50680;52.626;-8.668;2022-11-15T04:35:49;15.70;;;1.50;;
64351;SDS011;50680;52.626;-8.668;2022-11-15T04:38:37;16.98;;;1.23;;
64351;SDS011;50680;52.626;-8.668;2022-11-15T04:41:03;19.10;;;2.20;;
64351;SDS011;50680;52.626;-8.668;2022-11-15T04:43:30;18.55;;;1.40;;
64351;SDS011;50680;52.626;-8.668;2022-11-15T04:45:58;10.07;;;1.88;;
64351;SDS011;50680;52.626;-8.668;2022-11-15T04:48:24;12.65;;;3.28;;
64351;SDS011;50680;52.626;-8.668;2022-11-15T04:50:51;15.18;;;1.58;;
64351;SDS011;50680;52.626;-8.668;2022-11-15T04:53:18;17.40;;;1.40;;
64351;SDS011;50680;52.626;-8.668;2022-11-15T04:55:45;10.75;;;1.25;;
64351;SDS011;50680;52.626;-8.668;2022-11-15T04:58:12;22.50;;;1.70;;
64351;SDS011;50680;52.626;-8.668;2022-11-15T05:00:39;12.02;;;1.30;;
64351;SDS011;50680;52.626;-8.668;2022-11-15T05:03:07;8.70;;;1.00;;
64351;SDS011;50680;52.626;-8.668;2022-11-15T05:05:54;15.65;;;1.70;;
64351;SDS011;50680;52.626;-8.668;2022-11-15T05:08:21;18.30;;;1.48;;
64351;SDS011;50680;52.626;-8.668;2022-11-15T05:10:48;15.88;;;1.52;;
64351;SDS011;50680;52.626;-8.668;2022-11-15T05:13:14;12.25;;;1.27;;
64351;SDS011;50680;52.626;-8.668;2022-11-15T05:15:41;10.38;;;1.35;;
64351;SDS011;50680;52.626;-8.668;2022-11-15T05:18:08;12.38;;;1.88;;
64351;SDS011;50680;52.626;-8.668;2022-11-15T05:20:35;17.63;;;1.30;;
64351;SDS011;50680;52.626;-8.668;2022-11-15T05:23:02;8.20;;;0.90;;
64351;SDS011;50680;52.626;-8.668;2022-11-15T05:25:28;19.85;;;1.30;;
64351;SDS011;50680;52.626;-8.668;2022-11-15T05:27:55;10.98;;;1.02;;
64351;SDS011;50680;52.626;-8.668;2022-11-15T05:30:22;17.17;;;2.30;;
64351;SDS011;50680;52.626;-8.668;2022-11-15T05:32:49;22.98;;;1.73;;
64351;SDS011;50680;52.626;-8.668;2022-11-15T05:35:37;20.05;;;1.95;;
64351;SDS011;50680;52.626;-8.668;2022-11-15T05:38:07;13.20;;;1.38;;
64351;SDS011;50680;52.626;-8.668;2022-11-15T05:40:33;18.63;;;1.10;;
64351;SDS011;50680;52.626;-8.668;2022-11-15T05:43:01;17.88;;;1.67;;
64351;SDS011;50680;52.626;-8.668;2022-11-15T05:45:31;17.67;;;1.40;;
64351;SDS011;50680;52.626;-8.668;2022-11-15T05:48:00;11.95;;;1.75;;
64351;SDS011;50680;52.626;-8.668;2022-11-15T05:50:30;17.40;;;1.48;;
64351;SDS011;50680;52.626;-8.668;2022-11-15T05:52:57;9.05;;;1.00;;
64351;SDS011;50680;52.626;-8.668;2022-11-15T05:55:30;11.95;;;1.25;;
64351;SDS011;50680;52.626;-8.668;2022-11-15T05:57:57;14.30;;;1.20;;
64351;SDS011;50680;52.626;-8.668;2022-11-15T06:00:24;18.75;;;1.42;;
64351;SDS011;50680;52.626;-8.668;2022-11-15T06:02:51;18.40;;;1.83;;
64351;SDS011;50680;52.626;-8.668;2022-11-15T06:05:18;14.27;;;1.42;;
64351;SDS011;50680;52.626;-8.668;2022-11-15T06:07:45;13.73;;;2.40;;
64351;SDS011;50680;52.626;-8.668;2022-11-15T06:10:11;12.43;;;1.40;;
64351;SDS011;50680;52.626;-8.668;2022-11-15T06:12:38;22.00;;;1.73;;
64351;SDS011;50680;52.626;-8.668;2022-11-15T06:15:05;20.95;;;1.77;;
64351;SDS011;50680;52.626;-8.668;2022-11-15T06:17:32;21.02;;;1.45;;
64351;SDS011;50680;52.626;-8.668;2022-11-15T06:19:59;18.52;;;1.00;;
64351;SDS011;50680;52.626;-8.668;2022-11-15T06:22:26;17.25;;;1.52;;
64351;SDS011;50680;52.626;-8.668;2022-11-15T06:24:52;16.92;;;1.10;;
64351;SDS011;50680;52.626;-8.668;2022-11-15T06:27:19;21.00;;;1.73;;
64351;SDS011;50680;52.626;-8.668;2022-11-15T06:29:46;18.00;;;1.30;;
64351;SDS011;50680;52.626;-8.668;2022-11-15T06:32:12;13.25;;;1.17;;
64351;SDS011;50680;52.626;-8.668;2022-11-15T06:34:39;17.98;;;1.45;;
64351;SDS011;50680;52.626;-8.668;2022-11-15T06:37:06;15.65;;;1.90;;
64351;SDS011;50680;52.626;-8.668;2022-11-15T06:39:33;13.68;;;1.23;;
64351;SDS011;50680;52.626;-8.668;2022-11-15T06:41:59;16.10;;;1.70;;
64351;SDS011;50680;52.626;-8.668;2022-11-15T06:44:26;15.65;;;1.63;;
64351;SDS011;50680;52.626;-8.668;2022-11-15T06:46:53;12.25;;;1.60;;
64351;SDS011;50680;52.626;-8.668;2022-11-15T06:49:20;16.95;;;1.55;;
64351;SDS011;50680;52.626;-8.668;2022-11-15T06:51:46;17.60;;;1.95;;
64351;SDS011;50680;52.626;-8.668;2022-11-15T06:54:13;25.70;;;1.75;;
64351;SDS011;50680;52.626;-8.668;2022-11-15T06:56:40;17.92;;;1.38;;
64351;SDS011;50680;52.626;-8.668;2022-11-15T06:59:07;21.75;;;1.58;;
64351;SDS011;50680;52.626;-8.668;2022-11-15T07:01:33;16.70;;;1.80;;
64351;SDS011;50680;52.626;-8.668;2022-11-15T07:04:00;14.88;;;1.50;;
64351;SDS011;50680;52.626;-8.668;2022-11-15T07:06:27;18.85;;;2.35;;
64351;SDS011;50680;52.626;-8.668;2022-11-15T07:08:54;18.50;;;1.02;;
64351;SDS011;50680;52.626;-8.668;2022-11-15T07:11:21;24.83;;;2.17;;
64351;SDS011;50680;52.626;-8.668;2022-11-15T07:13:48;19.98;;;1.70;;
64351;SDS011;50680;52.626;-8.668;2022-11-15T07:16:14;12.20;;;2.33;;
64351;SDS011;50680;52.626;-8.668;2022-11-15T07:18:41;18.63;;;1.35;;
64351;SDS011;50680;52.626;-8.668;2022-11-15T07:21:09;18.85;;;1.85;;
64351;SDS011;50680;52.626;-8.668;2022-11-15T07:23:37;10.30;;;1.00;;
64351;SDS011;50680;52.626;-8.668;2022-11-15T07:26:05;24.45;;;2.38;;
64351;SDS011;50680;52.626;-8.668;2022-11-15T07:28:32;22.92;;;2.45;;
64351;SDS011;50680;52.626;-8.668;2022-11-15T07:31:03;17.02;;;2.05;;
64351;SDS011;50680;52.626;-8.668;2022-11-15T07:33:30;17.98;;;1.67;;
64351;SDS011;50680;52.626;-8.668;2022-11-15T07:35:59;14.10;;;1.40;;
64351;SDS011;50680;52.626;-8.668;2022-11-15T07:38:30;21.35;;;1.35;;
64351;SDS011;50680;52.626;-8.668;2022-11-15T07:41:01;11.50;;;1.83;;
64351;SDS011;50680;52.626;-8.668;2022-11-15T07:43:30;25.60;;;3.25;;
64351;SDS011;50680;52.626;-8.668;2022-11-15T07:46:03;14.98;;;0.88;;
64351;SDS011;50680;52.626;-8.668;2022-11-15T07:48:32;16.30;;;1.25;;
64351;SDS011;50680;52.626;-8.668;2022-11-15T07:54:03;16.17;;;1.40;;
64351;SDS011;50680;52.626;-8.668;2022-11-15T07:56:30;16.35;;;1.20;;
64351;SDS011;50680;52.626;-8.668;2022-11-15T07:58:56;24.52;;;2.28;;
64351;SDS011;50680;52.626;-8.668;2022-11-15T08:01:23;17.25;;;1.33;;
64351;SDS011;50680;52.626;-8.668;2022-11-15T08:03:50;17.83;;;2.15;;
64351;SDS011;50680;52.626;-8.668;2022-11-15T08:06:17;19.17;;;1.73;;
64351;SDS011;50680;52.626;-8.668;2022-11-15T08:08:44;14.23;;;1.48;;
64351;SDS011;50680;52.626;-8.668;2022-11-15T08:11:13;19.83;;;1.67;;
64351;SDS011;50680;52.626;-8.668;2022-11-15T08:13:40;15.10;;;1.30;;
64351;SDS011;50680;52.626;-8.668;2022-11-15T08:16:07;39.55;;;2.75;;
64351;SDS011;50680;52.626;-8.668;2022-11-15T08:18:34;16.10;;;1.15;;
64351;SDS011;50680;52.626;-8.668;2022-11-15T08:21:01;24.13;;;1.77;;
64351;SDS011;50680;52.626;-8.668;2022-11-15T08:23:28;18.98;;;1.20;;
64351;SDS011;50680;52.626;-8.668;2022-11-15T08:25:59;13.48;;;1.33;;
64351;SDS011;50680;52.626;-8.668;2022-11-15T08:28:31;7.10;;;1.42;;
64351;SDS011;50680;52.626;-8.668;2022-11-15T08:30:58;23.13;;;2.42;;
64351;SDS011;50680;52.626;-8.668;2022-11-15T08:33:25;15.82;;;1.63;;
64351;SDS011;50680;52.626;-8.668;2022-11-15T08:35:52;11.70;;;1.67;;
64351;SDS011;50680;52.626;-8.668;2022-11-15T08:38:23;18.10;;;2.45;;
64351;SDS011;50680;52.626;-8.668;2022-11-15T08:40:51;11.98;;;1.00;;
64351;SDS011;50680;52.626;-8.668;2022-11-15T08:43:19;19.10;;;1.15;;
64351;SDS011;50680;52.626;-8.668;2022-11-15T08:45:46;18.38;;;1.67;;
64351;SDS011;50680;52.626;-8.668;2022-11-15T08:48:13;13.23;;;1.23;;
64351;SDS011;50680;52.626;-8.668;2022-11-15T08:50:40;9.50;;;1.25;;
64351;SDS011;50680;52.626;-8.668;2022-11-15T08:53:07;11.95;;;0.75;;
64351;SDS011;50680;52.626;-8.668;2022-11-15T08:55:38;14.48;;;1.27;;
64351;SDS011;50680;52.626;-8.668;2022-11-15T08:58:06;12.35;;;1.42;;
64351;SDS011;50680;52.626;-8.668;2022-11-15T09:00:33;9.35;;;1.35;;
64351;SDS011;50680;52.626;-8.668;2022-11-15T09:03:03;11.27;;;0.90;;
64351;SDS011;50680;52.626;-8.668;2022-11-15T09:05:31;13.57;;;2.10;;
64351;SDS011;50680;52.626;-8.668;2022-11-15T09:07:58;13.18;;;2.00;;
64351;SDS011;50680;52.626;-8.668;2022-11-15T09:10:25;8.95;;;0.70;;
64351;SDS011;50680;52.626;-8.668;2022-11-15T09:12:52;7.22;;;0.80;;
64351;SDS011;50680;52.626;-8.668;2022-11-15T09:15:18;8.75;;;1.40;;
64351;SDS011;50680;52.626;-8.668;2022-11-15T09:17:46;7.93;;;1.00;;
64351;SDS011;50680;52.626;-8.668;2022-11-15T09:20:13;22.20;;;1.83;;
64351;SDS011;50680;52.626;-8.668;2022-11-15T09:22:40;13.45;;;1.70;;
64351;SDS011;50680;52.626;-8.668;2022-11-15T09:25:07;15.02;;;1.23;;
64351;SDS011;50680;52.626;-8.668;2022-11-15T09:27:36;14.00;;;1.52;;
64351;SDS011;50680;52.626;-8.668;2022-11-15T09:30:03;15.50;;;1.00;;
64351;SDS011;50680;52.626;-8.668;2022-11-15T09:32:30;7.97;;;1.70;;
64351;SDS011;50680;52.626;-8.668;2022-11-15T09:35:04;8.88;;;1.23;;
64351;SDS011;50680;52.626;-8.668;2022-11-15T09:37:31;14.00;;;1.30;;
64351;SDS011;50680;52.626;-8.668;2022-11-15T09:39:58;12.30;;;1.55;;
64351;SDS011;50680;52.626;-8.668;2022-11-15T09:45:34;13.98;;;1.52;;
64351;SDS011;50680;52.626;-8.668;2022-11-15T09:50:51;11.32;;;1.10;;
64351;SDS011;50680;52.626;-8.668;2022-11-15T09:53:46;11.43;;;0.70;;
64351;SDS011;50680;52.626;-8.668;2022-11-15T09:56:50;9.75;;;1.10;;
64351;SDS011;50680;52.626;-8.668;2022-11-15T10:04:30;14.10;;;1.83;;
64351;SDS011;50680;52.626;-8.668;2022-11-15T10:07:01;22.33;;;1.52;;
64351;SDS011;50680;52.626;-8.668;2022-11-15T10:12:29;9.02;;;1.10;;
64351;SDS011;50680;52.626;-8.668;2022-11-15T10:15:00;10.38;;;1.30;;
64351;SDS011;50680;52.626;-8.668;2022-11-15T10:18:05;9.85;;;1.10;;
64351;SDS011;50680;52.626;-8.668;2022-11-15T10:20:44;18.40;;;1.75;;
64351;SDS011;50680;52.626;-8.668;2022-11-15T10:23:15;9.63;;;1.52;;
64351;SDS011;50680;52.626;-8.668;2022-11-15T10:25:45;13.63;;;1.70;;
64351;SDS011;50680;52.626;-8.668;2022-11-15T10:30:43;7.85;;;0.90;;
64351;SDS011;50680;52.626;-8.668;2022-11-15T10:43:44;14.57;;;1.25;;
64351;SDS011;50680;52.626;-8.668;2022-11-15T10:46:22;9.25;;;1.10;;
64351;SDS011;50680;52.626;-8.668;2022-11-15T10:51:48;16.95;;;1.20;;
64351;SDS011;50680;52.626;-8.668;2022-11-15T10:54:36;8.60;;;0.90;;
64351;SDS011;50680;52.626;-8.668;2022-11-15T10:57:14;8.68;;;0.90;;
64351;SDS011;50680;52.626;-8.668;2022-11-15T10:59:48;6.07;;;0.95;;
64351;SDS011;50680;52.626;-8.668;2022-11-15T11:10:37;15.50;;;1.45;;
64351;SDS011;50680;52.626;-8.668;2022-11-15T11:13:26;12.73;;;1.30;;
64351;SDS011;50680;52.626;-8.668;2022-11-15T11:25:15;12.15;;;1.10;;
64351;SDS011;50680;52.626;-8.668;2022-11-15T11:30:58;11.63;;;1.20;;
64351;SDS011;50680;52.626;-8.668;2022-11-15T11:45:05;14.27;;;1.35;;
64351;SDS011;50680;52.626;-8.668;2022-11-15T11:50:26;11.95;;;1.08;;
64351;SDS011;50680;52.626;-8.668;2022-11-15T11:56:14;15.23;;;1.30;;
64351;SDS011;50680;52.626;-8.668;2022-11-15T11:58:48;10.02;;;1.58;;
64351;SDS011;50680;52.626;-8.668;2022-11-15T12:04:09;14.75;;;0.90;;
64351;SDS011;50680;52.626;-8.668;2022-11-15T12:06:37;16.60;;;1.65;;
64351;SDS011;50680;52.626;-8.668;2022-11-15T12:15:01;16.08;;;1.38;;
64351;SDS011;50680;52.626;-8.668;2022-11-15T12:17:38;13.52;;;1.83;;
64351;SDS011;50680;52.626;-8.668;2022-11-15T12:20:20;8.55;;;1.05;;
64351;SDS011;50680;52.626;-8.668;2022-11-15T12:25:45;13.48;;;1.58;;
64351;SDS011;50680;52.626;-8.668;2022-11-15T12:31:03;10.65;;;1.33;;
64351;SDS011;50680;52.626;-8.668;2022-11-15T12:33:41;15.30;;;1.83;;
64351;SDS011;50680;52.626;-8.668;2022-11-15T12:41:27;7.43;;;1.20;;
64351;SDS011;50680;52.626;-8.668;2022-11-15T13:02:18;12.68;;;1.80;;
64351;SDS011;50680;52.626;-8.668;2022-11-15T13:04:48;9.90;;;1.15;;
64351;SDS011;50680;52.626;-8.668;2022-11-15T13:22:48;12.30;;;0.90;;
64351;SDS011;50680;52.626;-8.668;2022-11-15T13:28:03;8.45;;;0.85;;
64351;SDS011;50680;52.626;-8.668;2022-11-15T13:30:56;3.58;;;0.43;;
64351;SDS011;50680;52.626;-8.668;2022-11-15T13:36:23;6.15;;;0.50;;
64351;SDS011;50680;52.626;-8.668;2022-11-15T13:38:58;3.63;;;0.70;;
64351;SDS011;50680;52.626;-8.668;2022-11-15T13:41:27;4.30;;;0.40;;
64351;SDS011;50680;52.626;-8.668;2022-11-15T13:43:59;3.30;;;0.50;;
64351;SDS011;50680;52.626;-8.668;2022-11-15T13:46:28;6.93;;;0.75;;
64351;SDS011;50680;52.626;-8.668;2022-11-15T13:54:02;4.28;;;0.52;;
64351;SDS011;50680;52.626;-8.668;2022-11-15T13:56:35;2.58;;;0.45;;
64351;SDS011;50680;52.626;-8.668;2022-11-15T13:59:45;3.58;;;0.60;;
64351;SDS011;50680;52.626;-8.668;2022-11-15T14:01:57;4.65;;;0.70;;
64351;SDS011;50680;52.626;-8.668;2022-11-15T14:04:30;5.38;;;0.52;;
64351;SDS011;50680;52.626;-8.668;2022-11-15T14:07:00;9.65;;;0.60;;
64351;SDS011;50680;52.626;-8.668;2022-11-15T14:09:33;7.93;;;0.85;;
64351;SDS011;50680;52.626;-8.668;2022-11-15T14:12:03;4.38;;;0.57;;
64351;SDS011;50680;52.626;-8.668;2022-11-15T14:14:58;2.53;;;0.47;;
64351;SDS011;50680;52.626;-8.668;2022-11-15T14:19:59;5.15;;;0.40;;
64351;SDS011;50680;52.626;-8.668;2022-11-15T14:22:27;5.43;;;0.40;;
64351;SDS011;50680;52.626;-8.668;2022-11-15T14:30:39;2.88;;;0.43;;
64351;SDS011;50680;52.626;-8.668;2022-11-15T14:35:58;2.83;;;0.50;;
64351;SDS011;50680;52.626;-8.668;2022-11-15T14:38:29;3.30;;;0.30;;
64351;SDS011;50680;52.626;-8.668;2022-11-15T14:40:56;1.48;;;0.50;;
64351;SDS011;50680;52.626;-8.668;2022-11-15T14:43:23;3.13;;;0.50;;
64351;SDS011;50680;52.626;-8.668;2022-11-15T14:45:50;3.45;;;0.40;;
64351;SDS011;50680;52.626;-8.668;2022-11-15T14:48:17;2.47;;;0.38;;
64351;SDS011;50680;52.626;-8.668;2022-11-15T14:50:44;4.07;;;0.47;;
64351;SDS011;50680;52.626;-8.668;2022-11-15T14:53:17;2.00;;;0.28;;
64351;SDS011;50680;52.626;-8.668;2022-11-15T14:55:45;2.17;;;0.25;;
64351;SDS011;50680;52.626;-8.668;2022-11-15T14:58:12;1.90;;;0.28;;
64351;SDS011;50680;52.626;-8.668;2022-11-15T15:00:39;7.50;;;0.30;;
64351;SDS011;50680;52.626;-8.668;2022-11-15T15:03:07;3.08;;;0.30;;
64351;SDS011;50680;52.626;-8.668;2022-11-15T15:05:36;1.90;;;0.32;;
64351;SDS011;50680;52.626;-8.668;2022-11-15T15:08:05;3.72;;;0.38;;
64351;SDS011;50680;52.626;-8.668;2022-11-15T15:10:34;1.85;;;0.30;;
64351;SDS011;50680;52.626;-8.668;2022-11-15T15:13:10;2.00;;;0.30;;
64351;SDS011;50680;52.626;-8.668;2022-11-15T15:15:46;0.73;;;0.20;;
64351;SDS011;50680;52.626;-8.668;2022-11-15T15:18:13;1.33;;;0.30;;
64351;SDS011;50680;52.626;-8.668;2022-11-15T15:20:42;1.58;;;0.20;;
64351;SDS011;50680;52.626;-8.668;2022-11-15T15:23:15;2.25;;;0.20;;
64351;SDS011;50680;52.626;-8.668;2022-11-15T15:25:44;2.55;;;0.20;;
64351;SDS011;50680;52.626;-8.668;2022-11-15T15:28:12;2.28;;;0.30;;
64351;SDS011;50680;52.626;-8.668;2022-11-15T15:30:39;4.97;;;0.30;;
64351;SDS011;50680;52.626;-8.668;2022-11-15T15:33:06;6.95;;;0.65;;
64351;SDS011;50680;52.626;-8.668;2022-11-15T15:35:34;0.65;;;0.20;;
64351;SDS011;50680;52.626;-8.668;2022-11-15T15:38:01;2.35;;;0.20;;
64351;SDS011;50680;52.626;-8.668;2022-11-15T15:40:30;4.00;;;0.25;;
64351;SDS011;50680;52.626;-8.668;2022-11-15T15:42:59;2.25;;;0.20;;
64351;SDS011;50680;52.626;-8.668;2022-11-15T15:45:26;2.63;;;0.38;;
64351;SDS011;50680;52.626;-8.668;2022-11-15T15:47:53;2.10;;;0.55;;
64351;SDS011;50680;52.626;-8.668;2022-11-15T15:52:55;3.75;;;0.20;;
64351;SDS011;50680;52.626;-8.668;2022-11-15T15:55:24;6.18;;;0.52;;
64351;SDS011;50680;52.626;-8.668;2022-11-15T15:57:51;2.40;;;0.38;;
64351;SDS011;50680;52.626;-8.668;2022-11-15T16:00:18;3.80;;;1.38;;
64351;SDS011;50680;52.626;-8.668;2022-11-15T16:02:46;3.95;;;0.47;;
64351;SDS011;50680;52.626;-8.668;2022-11-15T16:05:13;3.67;;;0.40;;
64351;SDS011;50680;52.626;-8.668;2022-11-15T16:07:40;5.05;;;0.30;;
64351;SDS011;50680;52.626;-8.668;2022-11-15T16:10:15;4.15;;;0.40;;
64351;SDS011;50680;52.626;-8.668;2022-11-15T16:12:47;3.50;;;0.50;;
64351;SDS011;50680;52.626;-8.668;2022-11-15T16:15:15;7.00;;;0.50;;
64351;SDS011;50680;52.626;-8.668;2022-11-15T16:17:45;1.48;;;0.40;;
64351;SDS011;50680;52.626;-8.668;2022-11-15T16:20:37;3.65;;;0.40;;
64351;SDS011;50680;52.626;-8.668;2022-11-15T16:23:14;5.05;;;0.32;;
64351;SDS011;50680;52.626;-8.668;2022-11-15T16:25:46;3.13;;;0.30;;
64351;SDS011;50680;52.626;-8.668;2022-11-15T16:28:17;1.83;;;0.40;;
64351;SDS011;50680;52.626;-8.668;2022-11-15T16:30:44;4.03;;;0.40;;
64351;SDS011;50680;52.626;-8.668;2022-11-15T16:33:11;6.28;;;1.00;;
64351;SDS011;50680;52.626;-8.668;2022-11-15T16:35:38;5.68;;;0.50;;
64351;SDS011;50680;52.626;-8.668;2022-11-15T16:38:04;1.73;;;0.30;;
64351;SDS011;50680;52.626;-8.668;2022-11-15T16:40:32;2.00;;;0.60;;
64351;SDS011;50680;52.626;-8.668;2022-11-15T16:43:01;7.80;;;0.70;;
64351;SDS011;50680;52.626;-8.668;2022-11-15T16:45:29;2.20;;;0.47;;
64351;SDS011;50680;52.626;-8.668;2022-11-15T16:47:57;5.47;;;0.50;;
64351;SDS011;50680;52.626;-8.668;2022-11-15T16:50:26;1.40;;;0.60;;
64351;SDS011;50680;52.626;-8.668;2022-11-15T16:52:55;3.87;;;0.70;;
64351;SDS011;50680;52.626;-8.668;2022-11-15T16:55:27;7.05;;;0.60;;
64351;SDS011;50680;52.626;-8.668;2022-11-15T17:00:23;6.50;;;0.68;;
64351;SDS011;50680;52.626;-8.668;2022-11-15T17:02:51;3.42;;;0.50;;
64351;SDS011;50680;52.626;-8.668;2022-11-15T17:05:20;3.17;;;0.50;;
64351;SDS011;50680;52.626;-8.668;2022-11-15T17:07:49;6.45;;;0.50;;
64351;SDS011;50680;52.626;-8.668;2022-11-15T17:10:23;1.73;;;0.50;;
64351;SDS011;50680;52.626;-8.668;2022-11-15T17:12:51;4.57;;;0.50;;
64351;SDS011;50680;52.626;-8.668;2022-11-15T17:15:20;3.72;;;0.65;;
64351;SDS011;50680;52.626;-8.668;2022-11-15T17:17:51;3.47;;;0.77;;
64351;SDS011;50680;52.626;-8.668;2022-11-15T17:20:20;3.35;;;0.75;;
64351;SDS011;50680;52.626;-8.668;2022-11-15T17:22:48;5.50;;;0.60;;
64351;SDS011;50680;52.626;-8.668;2022-11-15T17:25:15;10.52;;;0.73;;
64351;SDS011;50680;52.626;-8.668;2022-11-15T17:27:42;5.30;;;0.60;;
64351;SDS011;50680;52.626;-8.668;2022-11-15T17:30:11;5.15;;;0.77;;
64351;SDS011;50680;52.626;-8.668;2022-11-15T17:32:40;2.97;;;0.80;;
64351;SDS011;50680;52.626;-8.668;2022-11-15T17:35:09;4.82;;;0.77;;
64351;SDS011;50680;52.626;-8.668;2022-11-15T17:37:41;1.45;;;0.60;;
64351;SDS011;50680;52.626;-8.668;2022-11-15T17:40:08;5.55;;;1.23;;
64351;SDS011;50680;52.626;-8.668;2022-11-15T17:42:36;13.27;;;1.40;;
64351;SDS011;50680;52.626;-8.668;2022-11-15T17:45:02;6.43;;;1.65;;
64351;SDS011;50680;52.626;-8.668;2022-11-15T17:47:35;5.03;;;1.52;;
64351;SDS011;50680;52.626;-8.668;2022-11-15T17:50:02;4.70;;;1.35;;
64351;SDS011;50680;52.626;-8.668;2022-11-15T17:52:29;8.75;;;1.63;;